»·PEaware :: N187KT KSEA-KPDX

N187KT :: KSEA-KPDX

FLIGHT INFORMATION

Flight Status: Arrived
Operator: Privately registered:
United States
More flights under this callsign
Pilot: Kristoffer L. (6767)
Aircraft: Unknown
(EPIC)
More flights by this aircraft type
Origin: KSEA Seattle-Tacoma Intl
United States
Destination: KPDX Portland Intl
United States
More flights between these airports :: More routes between these airports
Route: +SEA6 SEA BUWZO KRATR2
File this flight plan on PilotEdge
Remarks:
Altitude:
(Current/Filed)
16,000ft
Speed:
(Current/Filed)
230kts
Departed: 04-Dec-17 11:19 AM
Arrived: 04-Dec-17 11:55 AM
Distance/Time
Traveled:
112nm/0:36
Distance/Time
To Go:
Arrived

Flight Plot

Page will automatically refresh every two minutes.

Flight plan parsing failed; only flown route is shown


Map Options




Map Legend


Flown Route
Filed Route
Departure Airport
Arrival Airport
Navaid (VOR, NDB)
Fix

Horizontal Profiles

Position Reports

Time Latitude Longitude Heading Altitude Ground
Speed
04-Dec-17 11:01 47.435502 -122.304042 89 330ft 0kts
04-Dec-17 11:02 47.435502 -122.304042 89 330ft 0kts
04-Dec-17 11:03 47.435502 -122.304042 89 330ft 0kts
04-Dec-17 11:04 47.435502 -122.304042 89 330ft 0kts
04-Dec-17 11:05 47.435502 -122.304042 89 330ft 0kts
04-Dec-17 11:06 47.435502 -122.304042 89 330ft 0kts
04-Dec-17 11:07 47.435502 -122.304042 89 330ft 0kts
04-Dec-17 11:08 47.435502 -122.304042 89 330ft 0kts
04-Dec-17 11:09 47.435502 -122.304042 89 330ft 0kts
04-Dec-17 11:10 47.435502 -122.304042 89 330ft 0kts
04-Dec-17 11:11 47.435502 -122.304042 89 330ft 0kts
04-Dec-17 11:12 47.435502 -122.304042 89 330ft 0kts
04-Dec-17 11:13 47.435502 -122.304042 89 330ft 0kts
04-Dec-17 11:14 47.435515 -122.304087 5 330ft 0kts
04-Dec-17 11:15 47.435515 -122.304086 5 330ft 0kts
04-Dec-17 11:16 47.435598 -122.304256 273 330ft 0kts
04-Dec-17 11:17 47.437209 -122.306406 358 330ft 23kts
04-Dec-17 11:18 47.444663 -122.306329 1 330ft 30kts
04-Dec-17 11:19 47.452263 -122.306270 1 330ft 24kts
04-Dec-17 11:20 47.458291 -122.306180 0 330ft 21kts
04-Dec-17 11:21 47.463674 -122.306339 284 330ft 0kts
04-Dec-17 11:22 47.463674 -122.306339 284 330ft 0kts
04-Dec-17 11:23 47.463674 -122.306339 284 330ft 0kts
04-Dec-17 11:24 47.461117 -122.307783 178 330ft 57kts
04-Dec-17 11:25 47.418861 -122.307345 181 1976ft 184kts
04-Dec-17 11:26 47.364498 -122.308506 179 4953ft 177kts
04-Dec-17 11:27 47.318350 -122.308261 179 6625ft 206kts
04-Dec-17 11:28 47.263488 -122.309286 181 7732ft 215kts
04-Dec-17 11:29 47.202004 -122.310195 181 9416ft 232kts
04-Dec-17 11:30 47.138796 -122.310228 181 11851ft 241kts
04-Dec-17 11:31 47.070741 -122.310012 182 13968ft 252kts
04-Dec-17 11:32 46.999748 -122.309720 182 15816ft 261kts
04-Dec-17 11:33 46.923463 -122.309539 182 15991ft 281kts
04-Dec-17 11:34 46.847065 -122.309526 182 15982ft 284kts
04-Dec-17 11:35 46.784625 -122.309518 182 15983ft 285kts
04-Dec-17 11:36 46.705735 -122.309519 181 15983ft 289kts
04-Dec-17 11:37 46.638562 -122.309518 181 15984ft 290kts
04-Dec-17 11:38 46.558674 -122.309521 181 15999ft 288kts
04-Dec-17 11:39 46.479624 -122.309542 181 14656ft 294kts
04-Dec-17 11:40 46.397548 -122.309536 181 13219ft 307kts
04-Dec-17 11:41 46.312487 -122.309554 181 11787ft 307kts
04-Dec-17 11:42 46.229643 -122.326691 201 11005ft 299kts
04-Dec-17 11:43 46.153248 -122.367672 203 10712ft 290kts
04-Dec-17 11:44 46.079590 -122.406624 204 10365ft 282kts
04-Dec-17 11:45 46.006407 -122.447556 202 9100ft 284kts
04-Dec-17 11:46 45.937021 -122.485755 212 7515ft 249kts
04-Dec-17 11:47 45.889921 -122.541258 222 5550ft 231kts
04-Dec-17 11:48 45.847905 -122.593600 222 4996ft 224kts
04-Dec-17 11:49 45.801270 -122.652187 222 4994ft 225kts
04-Dec-17 11:50 45.779903 -122.724573 284 4996ft 218kts
04-Dec-17 11:51 45.793847 -122.808074 284 4997ft 214kts
04-Dec-17 11:52 45.778401 -122.875421 204 5002ft 207kts
04-Dec-17 11:53 45.728580 -122.897843 167 4407ft 206kts
04-Dec-17 11:54 45.691851 -122.847173 116 3857ft 184kts
04-Dec-17 11:55 45.667587 -122.785455 116 3015ft 168kts
04-Dec-17 11:56 45.651881 -122.743469 119 2339ft 123kts
04-Dec-17 11:57 45.635584 -122.699817 114 1700ft 134kts
04-Dec-17 11:58 45.617676 -122.654296 118 975ft 128kts
04-Dec-17 11:59 45.600661 -122.610386 118 282ft 129kts
04-Dec-17 12:00 45.589124 -122.581940 185 20ft 1kts
04-Dec-17 12:01 45.587308 -122.579544 118 20ft 20kts
04-Dec-17 12:02 45.586161 -122.581063 173 20ft 6kts
04-Dec-17 12:03 45.586102 -122.581008 124 20ft 0kts

Navigation Log

Ident Type
Flight plan parsing failed, navigation log unavailable